Time;durP1;ratioP1;P1;durP2;ratioP2;P2;SDS_P1;SDS_P2;PMS_P1;PMS_P2;Temp;Humidity;BMP_temperature;BMP_pressure;BME280_temperature;BME280_humidity;BME280_pressure;Samples;Min_cycle;Max_cycle;Signal;HPM_P1;HPM_P2
2021/05/10 00:00:34;;;;;;;1.38;0.63;;;19.60;99.90;;;;;;5046122;28;20033;-79
2021/05/10 00:03:00;;;;;;;1.00;0.60;;;19.50;99.90;;;;;;5046456;28;20532;-76
2021/05/10 00:05:26;;;;;;;4.63;1.00;;;19.60;99.90;;;;;;5046433;28;20037;-81
2021/05/10 00:07:52;;;;;;;2.00;0.82;;;19.50;99.90;;;;;;5059628;28;20056;-76
2021/05/10 00:10:18;;;;;;;5.55;0.77;;;19.50;99.90;;;;;;5061781;28;20565;-75
2021/05/10 00:12:43;;;;;;;3.80;0.88;;;19.60;99.90;;;;;;5045191;28;20079;-76
2021/05/10 00:15:10;;;;;;;1.00;0.65;;;19.60;99.90;;;;;;5045935;28;20021;-75
2021/05/10 00:17:36;;;;;;;2.78;0.82;;;19.60;99.90;;;;;;5064494;28;20119;-74
2021/05/10 00:20:03;;;;;;;2.33;1.05;;;19.60;99.90;;;;;;5064673;28;20056;-75
2021/05/10 00:22:29;;;;;;;1.17;0.77;;;19.60;99.90;;;;;;5065788;28;20112;-75
2021/05/10 00:24:54;;;;;;;0.90;0.85;;;19.50;99.90;;;;;;5064779;28;20025;-73
2021/05/10 00:27:20;;;;;;;3.05;0.68;;;19.50;99.90;;;;;;5064793;28;20029;-74
2021/05/10 00:29:46;;;;;;;6.85;0.90;;;19.50;99.90;;;;;;5065599;28;20033;-76
2021/05/10 00:32:12;;;;;;;1.63;0.98;;;19.40;99.90;;;;;;5065937;28;20032;-74
2021/05/10 00:34:38;;;;;;;1.77;1.00;;;19.40;99.90;;;;;;5065988;28;20035;-74
2021/05/10 00:37:04;;;;;;;1.83;0.82;;;19.40;99.90;;;;;;5065219;28;20141;-75
2021/05/10 00:39:29;;;;;;;7.03;0.95;;;19.30;99.90;;;;;;5065480;28;20025;-77
2021/05/10 00:41:58;;;;;;;1.52;0.85;;;19.30;99.90;;;;;;5065503;28;20119;-76
2021/05/10 00:44:23;;;;;;;1.75;0.75;;;19.30;99.90;;;;;;5065276;28;20024;-76
2021/05/10 00:46:53;;;;;;;1.33;0.73;;;19.30;99.90;;;;;;5064404;28;20103;-76
2021/05/10 00:49:20;;;;;;;0.70;0.50;;;19.30;99.90;;;;;;5065450;28;20074;-76
2021/05/10 00:51:47;;;;;;;4.32;1.08;;;19.30;99.90;;;;;;5065332;28;20040;-74
2021/05/10 00:54:13;;;;;;;0.55;0.50;;;19.30;99.90;;;;;;5064475;28;20079;-75
2021/05/10 00:56:39;;;;;;;5.97;0.93;;;19.30;99.90;;;;;;5064293;28;20029;-75
2021/05/10 00:59:05;;;;;;;4.55;1.13;;;19.30;99.90;;;;;;5063587;28;20028;-76
2021/05/10 01:01:31;;;;;;;1.90;1.08;;;19.30;99.90;;;;;;5063970;28;20033;-75
2021/05/10 01:03:57;;;;;;;3.65;0.75;;;19.30;99.90;;;;;;5063818;28;20075;-74
2021/05/10 01:06:22;;;;;;;1.05;0.70;;;19.30;99.90;;;;;;5064934;28;20028;-75
2021/05/10 01:08:48;;;;;;;0.80;0.68;;;19.20;99.90;;;;;;5065376;28;20031;-76
2021/05/10 01:11:14;;;;;;;2.67;0.95;;;19.20;99.90;;;;;;5065105;28;20059;-75
2021/05/10 01:13:40;;;;;;;1.98;1.13;;;19.20;99.90;;;;;;5063492;28;20051;-78
2021/05/10 01:16:06;;;;;;;11.23;1.23;;;19.10;99.90;;;;;;5065140;28;20024;-79
2021/05/10 01:18:33;;;;;;;2.33;1.05;;;19.10;99.90;;;;;;5063808;28;20048;-74
2021/05/10 01:21:00;;;;;;;3.30;0.77;;;19.10;99.90;;;;;;5063214;28;20409;-78
2021/05/10 01:23:26;;;;;;;0.73;0.57;;;19.10;99.90;;;;;;5064890;28;20035;-74
2021/05/10 01:25:51;;;;;;;4.78;0.80;;;18.90;99.90;;;;;;5063187;28;20064;-74
2021/05/10 01:28:17;;;;;;;1.95;0.85;;;18.90;99.90;;;;;;5064747;28;20021;-74
2021/05/10 01:30:48;;;;;;;1.10;0.57;;;18.80;99.90;;;;;;5064826;28;20071;-75
2021/05/10 01:33:14;;;;;;;1.20;0.80;;;18.80;99.90;;;;;;5064590;28;20025;-73
2021/05/10 01:35:43;;;;;;;1.55;0.88;;;18.70;99.90;;;;;;5064896;28;20036;-76
2021/05/10 01:38:09;;;;;;;0.45;0.30;;;18.70;99.90;;;;;;5064872;28;20025;-75
2021/05/10 01:40:35;;;;;;;1.42;0.68;;;18.70;99.90;;;;;;5063124;28;20059;-75
2021/05/10 01:43:02;;;;;;;1.45;0.90;;;18.60;99.90;;;;;;5063152;28;20144;-75
2021/05/10 01:45:27;;;;;;;1.90;1.00;;;18.60;99.90;;;;;;5064645;28;20033;-73
2021/05/10 01:48:07;;;;;;;0.70;0.60;;;18.60;99.90;;;;;;5064380;28;20040;-74
2021/05/10 01:50:34;;;;;;;1.75;1.00;;;18.60;99.90;;;;;;5062923;28;20052;-75
2021/05/10 01:52:59;;;;;;;1.35;0.82;;;18.60;99.90;;;;;;5064332;28;20084;-76
2021/05/10 01:55:25;;;;;;;2.22;0.77;;;18.50;99.90;;;;;;5063118;28;20029;-74
2021/05/10 01:57:54;;;;;;;5.50;1.10;;;18.60;99.90;;;;;;5063312;28;20032;-74
2021/05/10 02:00:23;;;;;;;0.63;0.57;;;18.60;99.90;;;;;;5064092;28;20021;-79
2021/05/10 02:02:49;;;;;;;1.75;0.95;;;18.60;99.90;;;;;;5064504;28;20017;-74
2021/05/10 02:05:19;;;;;;;1.92;0.90;;;18.60;99.90;;;;;;5064612;28;20108;-75
2021/05/10 02:07:53;;;;;;;1.42;0.82;;;18.60;99.90;;;;;;5064413;28;20047;-75
2021/05/10 02:10:32;;;;;;;11.70;0.77;;;18.60;99.90;;;;;;5064171;28;20040;-74
2021/05/10 02:13:04;;;;;;;1.98;1.13;;;18.60;99.90;;;;;;5064272;28;20056;-75
2021/05/10 02:15:42;;;;;;;1.60;0.80;;;18.60;99.90;;;;;;5062736;28;20029;-74
2021/05/10 02:18:09;;;;;;;0.30;0.30;;;18.70;99.90;;;;;;5064422;28;20055;-74
2021/05/10 02:20:35;;;;;;;2.00;1.00;;;18.60;99.90;;;;;;5064274;28;20017;-74
2021/05/10 02:23:06;;;;;;;2.25;0.80;;;18.50;99.90;;;;;;5062573;28;20409;-75
2021/05/10 02:25:34;;;;;;;5.47;1.42;;;18.60;99.90;;;;;;5063090;28;20481;-75
2021/05/10 02:28:00;;;;;;;1.33;0.80;;;18.50;99.90;;;;;;5062904;28;20032;-75
2021/05/10 02:30:28;;;;;;;1.60;0.70;;;18.50;99.90;;;;;;5062533;28;20075;-73
2021/05/10 02:32:54;;;;;;;3.42;0.95;;;18.50;99.90;;;;;;5062617;28;20051;-74
2021/05/10 02:35:21;;;;;;;4.28;0.60;;;18.40;99.90;;;;;;5062810;28;20028;-75
2021/05/10 02:37:47;;;;;;;0.60;0.50;;;18.50;99.90;;;;;;5062615;28;20104;-74
2021/05/10 02:40:13;;;;;;;2.30;0.60;;;18.40;99.90;;;;;;5064385;28;20029;-74
2021/05/10 02:42:40;;;;;;;3.65;1.02;;;18.30;99.90;;;;;;5063996;28;20060;-76
2021/05/10 02:45:07;;;;;;;1.50;0.93;;;18.30;99.90;;;;;;5062471;28;20025;-75
2021/05/10 02:47:33;;;;;;;1.20;0.80;;;18.20;99.90;;;;;;5064107;28;20021;-74
2021/05/10 02:49:59;;;;;;;3.60;1.20;;;18.20;99.90;;;;;;5062681;28;20025;-76
2021/05/10 02:52:24;;;;;;;2.95;1.23;;;18.10;99.90;;;;;;5063589;28;20078;-75
2021/05/10 02:54:50;;;;;;;3.13;1.27;;;18.10;99.90;;;;;;5062533;28;20024;-76
2021/05/10 02:57:16;;;;;;;3.33;0.77;;;18.10;99.90;;;;;;5062570;28;20025;-76
2021/05/10 02:59:43;;;;;;;1.15;0.82;;;18.10;99.90;;;;;;5063633;28;20025;-74
2021/05/10 03:02:09;;;;;;;0.95;0.60;;;18.10;99.90;;;;;;5065522;28;20029;-75
2021/05/10 03:04:35;;;;;;;0.60;0.40;;;18.10;99.90;;;;;;5066247;28;20048;-74
2021/05/10 03:07:00;;;;;;;1.65;0.68;;;18.00;99.90;;;;;;5067210;28;20040;-74
2021/05/10 03:09:26;;;;;;;0.88;0.80;;;18.00;99.90;;;;;;5066229;28;20144;-75
2021/05/10 03:11:51;;;;;;;1.60;0.77;;;18.00;99.90;;;;;;5065840;28;20063;-75
2021/05/10 03:14:18;;;;;;;2.88;1.05;;;18.00;99.90;;;;;;5067344;28;20029;-76
2021/05/10 03:16:43;;;;;;;1.23;0.85;;;17.90;99.90;;;;;;5066372;28;20036;-75
2021/05/10 03:19:09;;;;;;;1.75;1.17;;;17.90;99.90;;;;;;5066199;28;20029;-75
2021/05/10 03:21:39;;;;;;;2.40;0.98;;;17.80;99.90;;;;;;5065605;28;20564;-75
2021/05/10 03:24:06;;;;;;;7.93;1.30;;;17.90;99.90;;;;;;5066009;28;20035;-76
2021/05/10 03:26:33;;;;;;;1.05;0.70;;;17.80;99.90;;;;;;5066045;28;20064;-74
2021/05/10 03:28:58;;;;;;;4.68;1.30;;;17.80;99.90;;;;;;5065613;28;20097;-74
2021/05/10 03:31:24;;;;;;;1.17;0.80;;;17.70;99.90;;;;;;5066920;28;20049;-75
2021/05/10 03:33:49;;;;;;;1.80;0.70;;;17.70;99.90;;;;;;5065297;28;20032;-77
2021/05/10 03:36:15;;;;;;;3.42;1.17;;;17.60;99.90;;;;;;5067018;28;20025;-75
2021/05/10 03:38:40;;;;;;;1.45;1.10;;;17.60;99.90;;;;;;5065931;28;20025;-74
2021/05/10 03:41:06;;;;;;;2.20;1.02;;;17.50;99.90;;;;;;5066496;28;20413;-74
2021/05/10 03:43:32;;;;;;;3.17;1.35;;;17.50;99.90;;;;;;5065291;28;20029;-74
2021/05/10 03:45:57;;;;;;;1.33;0.80;;;17.60;99.90;;;;;;5066749;28;20033;-74
2021/05/10 03:48:23;;;;;;;3.05;0.80;;;17.50;99.90;;;;;;5066385;28;20056;-74
2021/05/10 03:50:48;;;;;;;1.05;0.80;;;17.50;99.90;;;;;;5065194;28;20036;-76
2021/05/10 03:53:14;;;;;;;1.33;0.88;;;17.50;99.90;;;;;;5065649;28;20074;-74
2021/05/10 03:55:40;;;;;;;3.65;1.38;;;17.50;99.90;;;;;;5065259;28;20387;-75
2021/05/10 03:58:05;;;;;;;2.25;1.40;;;17.40;99.90;;;;;;5065013;28;20517;-74
2021/05/10 04:00:31;;;;;;;6.15;1.20;;;17.50;99.90;;;;;;5066442;28;20496;-74
2021/05/10 04:02:59;;;;;;;2.60;1.00;;;17.60;99.90;;;;;;5066454;28;20044;-74
2021/05/10 04:08:11;;;;;;;1.35;0.93;;;17.60;99.90;;;;;;5066617;28;20059;-74
2021/05/10 04:10:43;;;;;;;2.53;0.70;;;17.60;99.90;;;;;;5066021;28;20041;-75
2021/05/10 04:15:54;;;;;;;1.42;0.93;;;17.70;99.90;;;;;;5066270;28;20052;-73
2021/05/10 04:18:21;;;;;;;7.15;0.65;;;17.60;99.90;;;;;;5064716;28;20033;-76
2021/05/10 04:20:47;;;;;;;1.30;0.98;;;17.60;99.90;;;;;;5066366;28;20080;-73
2021/05/10 04:23:16;;;;;;;1.30;0.82;;;17.70;99.90;;;;;;5066289;28;20032;-76
2021/05/10 04:25:46;;;;;;;3.03;1.05;;;17.60;99.90;;;;;;5066026;28;20086;-74
2021/05/10 04:28:12;;;;;;;0.95;0.68;;;17.60;99.90;;;;;;5064760;28;20071;-75
2021/05/10 04:30:38;;;;;;;2.13;1.20;;;17.60;99.90;;;;;;5065834;28;20067;-73
2021/05/10 04:33:04;;;;;;;1.33;1.13;;;17.60;99.90;;;;;;5065677;28;20036;-75
2021/05/10 04:35:32;;;;;;;3.47;0.95;;;17.70;99.90;;;;;;5066024;28;20025;-75
2021/05/10 04:37:57;;;;;;;1.70;0.80;;;17.70;99.90;;;;;;5065722;28;20052;-72
2021/05/10 04:40:23;;;;;;;14.18;1.10;;;17.70;99.90;;;;;;5065601;28;20046;-73
2021/05/10 04:42:48;;;;;;;1.27;0.90;;;17.70;99.90;;;;;;5065272;28;20080;-75
2021/05/10 04:45:15;;;;;;;3.13;1.17;;;17.70;99.90;;;;;;5065237;28;20031;-73
2021/05/10 04:47:41;;;;;;;3.55;1.23;;;17.70;99.90;;;;;;5065365;28;20064;-75
2021/05/10 04:50:11;;;;;;;1.60;0.90;;;17.60;99.90;;;;;;5066503;28;20123;-73
2021/05/10 04:52:38;;;;;;;1.88;1.00;;;17.60;99.90;;;;;;5066196;28;20035;-73
2021/05/10 04:55:05;;;;;;;3.22;1.15;;;17.70;99.90;;;;;;5066686;28;20051;-75
2021/05/10 04:57:31;;;;;;;2.50;1.45;;;17.70;99.90;;;;;;5066296;28;20125;-75
2021/05/10 04:59:57;;;;;;;4.03;1.55;;;17.70;99.90;;;;;;5064643;28;20075;-73
2021/05/10 05:02:22;;;;;;;1.33;0.70;;;17.70;99.90;;;;;;5065093;28;20025;-74
2021/05/10 05:04:48;;;;;;;1.63;1.05;;;17.70;99.90;;;;;;5065036;28;20071;-74
2021/05/10 05:07:14;;;;;;;2.00;1.30;;;17.90;99.90;;;;;;5064762;28;20385;-74
2021/05/10 05:09:40;;;;;;;1.65;1.00;;;17.80;99.90;;;;;;5066146;28;20025;-75
2021/05/10 05:12:05;;;;;;;3.47;0.77;;;17.80;99.90;;;;;;5064565;28;20508;-76
2021/05/10 05:14:31;;;;;;;1.95;1.20;;;17.90;99.90;;;;;;5061547;28;20072;-75
2021/05/10 05:16:57;;;;;;;3.55;1.38;;;18.00;99.90;;;;;;5061428;28;20025;-76
2021/05/10 05:19:23;;;;;;;1.23;0.80;;;18.00;99.90;;;;;;5050425;28;20025;-75
2021/05/10 05:21:48;;;;;;;2.47;1.20;;;18.00;99.90;;;;;;5064986;28;20031;-72
2021/05/10 05:24:14;;;;;;;1.10;0.85;;;18.00;99.90;;;;;;5062637;28;20029;-72
2021/05/10 05:26:40;;;;;;;1.33;1.02;;;18.10;99.90;;;;;;5052125;28;20037;-73
2021/05/10 05:29:05;;;;;;;2.47;1.10;;;18.00;99.90;;;;;;5044060;28;20034;-72
2021/05/10 05:31:31;;;;;;;2.70;1.30;;;18.20;99.90;;;;;;5043501;28;20048;-74
2021/05/10 05:33:56;;;;;;;7.43;1.23;;;18.20;99.90;;;;;;5046785;28;20433;-74
2021/05/10 05:36:22;;;;;;;1.27;0.90;;;18.30;99.90;;;;;;5059720;28;20021;-73
2021/05/10 05:38:48;;;;;;;2.80;1.38;;;18.40;99.90;;;;;;5044741;28;20025;-72
2021/05/10 05:41:14;;;;;;;1.85;0.90;;;18.40;99.90;;;;;;5043144;28;20437;-72
2021/05/10 05:43:40;;;;;;;1.17;0.93;;;18.50;99.90;;;;;;5044601;28;20022;-74
2021/05/10 05:46:14;;;;;;;1.00;0.82;;;18.60;99.90;;;;;;5042769;28;20463;-72
2021/05/10 05:48:40;;;;;;;4.68;1.13;;;18.60;99.90;;;;;;5044258;28;20033;-73
2021/05/10 05:51:09;;;;;;;2.03;0.77;;;18.70;99.90;;;;;;5044578;28;20041;-72
2021/05/10 05:53:34;;;;;;;2.55;1.02;;;18.80;99.90;;;;;;5043234;28;20060;-74
2021/05/10 05:56:00;;;;;;;1.88;1.20;;;18.80;99.90;;;;;;5042613;28;20026;-74
2021/05/10 05:58:25;;;;;;;1.40;0.68;;;18.90;99.90;;;;;;5044596;28;20101;-76
2021/05/10 06:00:53;;;;;;;6.80;0.88;;;19.00;99.90;;;;;;5051373;28;20059;-76
2021/05/10 06:03:19;;;;;;;1.80;0.82;;;18.90;99.90;;;;;;5058768;28;20025;-79
2021/05/10 06:05:45;;;;;;;1.38;1.00;;;19.00;99.90;;;;;;5061830;28;20401;-73
2021/05/10 06:08:13;;;;;;;7.30;1.00;;;19.00;99.90;;;;;;5054831;28;20042;-71
2021/05/10 06:10:38;;;;;;;2.65;1.05;;;19.10;99.90;;;;;;5044127;28;20041;-76
2021/05/10 06:13:04;;;;;;;2.17;0.90;;;19.30;99.90;;;;;;5044324;28;20021;-71
2021/05/10 06:15:30;;;;;;;2.08;1.00;;;19.40;99.90;;;;;;5044045;28;20036;-74
2021/05/10 06:17:55;;;;;;;1.60;1.10;;;19.60;99.90;;;;;;5044190;28;20521;-71
2021/05/10 06:20:22;;;;;;;2.28;1.17;;;19.70;99.90;;;;;;5043192;28;20060;-71
2021/05/10 06:22:48;;;;;;;1.23;0.90;;;19.80;99.90;;;;;;5044048;28;20026;-70
2021/05/10 06:25:15;;;;;;;1.52;0.63;;;19.90;99.90;;;;;;5044413;28;20036;-72
2021/05/10 06:27:41;;;;;;;1.45;0.90;;;20.00;99.90;;;;;;5042950;28;20096;-72
2021/05/10 06:30:09;;;;;;;1.23;1.00;;;20.10;99.90;;;;;;5043708;28;20085;-72
2021/05/10 06:32:35;;;;;;;1.88;1.10;;;20.20;99.90;;;;;;5042674;28;20059;-71
2021/05/10 06:35:00;;;;;;;2.08;0.63;;;20.20;99.90;;;;;;5043098;28;20049;-70
2021/05/10 06:37:29;;;;;;;1.25;0.65;;;20.20;99.90;;;;;;5046182;28;20033;-71
2021/05/10 06:39:58;;;;;;;1.58;1.10;;;20.20;99.90;;;;;;5048167;28;20037;-70
2021/05/10 06:42:25;;;;;;;1.83;1.13;;;20.30;99.90;;;;;;5065496;28;20466;-71
2021/05/10 06:44:51;;;;;;;2.33;0.60;;;20.30;99.90;;;;;;5066010;28;20052;-73
2021/05/10 06:47:17;;;;;;;1.70;1.10;;;20.40;99.90;;;;;;5053489;28;20029;-72
2021/05/10 06:49:42;;;;;;;4.53;1.05;;;20.40;99.90;;;;;;5047955;28;20037;-71
2021/05/10 06:52:08;;;;;;;1.67;0.68;;;20.40;99.90;;;;;;5047211;28;20892;-72
2021/05/10 06:54:33;;;;;;;1.02;0.63;;;20.50;99.90;;;;;;5046315;28;20435;-77
2021/05/10 06:56:59;;;;;;;2.00;1.00;;;20.50;99.90;;;;;;5047602;28;20032;-70
2021/05/10 06:59:25;;;;;;;6.43;0.95;;;20.60;99.90;;;;;;5047345;28;20021;-70
2021/05/10 07:01:50;;;;;;;2.33;0.90;;;20.70;99.90;;;;;;5062914;28;20033;-72
2021/05/10 07:04:16;;;;;;;1.30;0.90;;;20.90;99.90;;;;;;5047465;28;20032;-73
2021/05/10 07:06:42;;;;;;;5.05;0.93;;;21.00;99.90;;;;;;5062879;28;20132;-70
2021/05/10 07:09:09;;;;;;;1.10;0.80;;;21.20;99.90;;;;;;5046030;28;20121;-81
2021/05/10 07:11:35;;;;;;;0.70;0.70;;;21.40;99.90;;;;;;5045926;28;20172;-72
2021/05/10 07:14:01;;;;;;;5.22;0.77;;;21.50;99.90;;;;;;5047330;28;20045;-72
2021/05/10 07:16:27;;;;;;;1.73;0.95;;;21.60;99.90;;;;;;5047076;28;20017;-75
2021/05/10 07:18:54;;;;;;;1.02;0.60;;;21.70;99.90;;;;;;5065446;28;20134;-74
2021/05/10 07:21:26;;;;;;;1.00;0.70;;;21.80;99.90;;;;;;5050891;28;20059;-72
2021/05/10 07:23:52;;;;;;;15.20;1.08;;;21.80;99.90;;;;;;5043906;28;20037;-74
2021/05/10 07:26:18;;;;;;;1.73;1.27;;;21.80;99.90;;;;;;5046182;28;20033;-74
2021/05/10 07:28:43;;;;;;;1.42;1.00;;;21.80;99.90;;;;;;5047687;28;20461;-71
2021/05/10 07:31:09;;;;;;;1.30;0.73;;;21.90;99.90;;;;;;5061830;28;20045;-78
2021/05/10 07:33:35;;;;;;;2.22;0.85;;;21.90;99.90;;;;;;5046335;28;20091;-71
2021/05/10 07:36:01;;;;;;;1.83;0.85;;;22.00;99.90;;;;;;5046934;28;20032;-71
2021/05/10 07:38:27;;;;;;;1.30;0.88;;;22.00;99.90;;;;;;5045543;28;20038;-76
2021/05/10 07:40:53;;;;;;;1.65;0.98;;;22.10;99.90;;;;;;5061773;28;20040;-74
2021/05/10 07:43:18;;;;;;;1.95;1.08;;;22.00;99.90;;;;;;5046835;28;20139;-75
2021/05/10 07:45:44;;;;;;;2.63;0.85;;;22.00;99.90;;;;;;5059017;28;20036;-73
2021/05/10 07:48:10;;;;;;;9.63;1.10;;;22.10;99.90;;;;;;5064888;28;20033;-75
2021/05/10 07:50:35;;;;;;;2.53;0.93;;;22.10;99.90;;;;;;5063950;28;20040;-71
2021/05/10 07:53:01;;;;;;;6.38;1.10;;;22.10;99.90;;;;;;5057996;28;20052;-72
2021/05/10 07:55:27;;;;;;;15.05;1.13;;;22.10;99.90;;;;;;5054876;28;20085;-75
2021/05/10 07:57:54;;;;;;;1.42;0.80;;;22.10;99.90;;;;;;5058994;28;20029;-73
2021/05/10 08:02:57;;;;;;;5.28;1.00;;;22.20;99.90;;;;;;5053812;28;20024;-76
2021/05/10 08:05:23;;;;;;;1.90;0.68;;;22.30;99.90;;;;;;5050780;28;20049;-71
2021/05/10 08:07:49;;;;;;;0.40;0.40;;;22.30;99.90;;;;;;5046444;28;20032;-75
2021/05/10 08:10:15;;;;;;;0.90;0.60;;;22.40;99.90;;;;;;5044989;28;20029;-76
2021/05/10 08:12:41;;;;;;;2.45;1.20;;;22.50;99.90;;;;;;5046118;28;20033;-74
2021/05/10 08:15:07;;;;;;;5.43;1.05;;;22.60;99.90;;;;;;5040712;28;20025;-71
2021/05/10 08:17:34;;;;;;;1.88;0.82;;;22.60;99.90;;;;;;5045182;28;20081;-74
2021/05/10 08:20:00;;;;;;;6.07;1.75;;;22.60;99.90;;;;;;5044436;28;20022;-76
2021/05/10 08:22:26;;;;;;;0.80;0.60;;;22.60;99.90;;;;;;5045057;28;20017;-74
2021/05/10 08:24:52;;;;;;;0.85;0.68;;;22.50;99.90;;;;;;5045759;28;20033;-71
2021/05/10 08:27:18;;;;;;;3.20;0.68;;;22.60;99.90;;;;;;5052291;28;20037;-76
2021/05/10 08:29:43;;;;;;;4.25;1.20;;;22.60;99.90;;;;;;5063865;28;20032;-73
2021/05/10 08:32:10;;;;;;;0.63;0.52;;;22.70;99.90;;;;;;5044235;28;20041;-75
2021/05/10 08:34:35;;;;;;;1.38;0.90;;;22.80;99.90;;;;;;5045484;28;20176;-74
2021/05/10 08:37:01;;;;;;;4.75;1.13;;;23.00;99.90;;;;;;5044153;28;20046;-81
2021/05/10 08:39:26;;;;;;;5.85;0.85;;;23.10;99.90;;;;;;5044283;28;20032;-73
2021/05/10 08:41:53;;;;;;;1.13;0.55;;;23.40;99.90;;;;;;5045972;28;20041;-73
2021/05/10 08:44:23;;;;;;;9.85;0.82;;;23.50;99.90;;;;;;5045474;28;20036;-75
2021/05/10 08:46:48;;;;;;;14.00;1.05;;;23.40;99.90;;;;;;5044604;28;20021;-76
2021/05/10 08:49:23;;;;;;;1.13;0.77;;;23.30;99.90;;;;;;5044587;28;20049;-72
2021/05/10 08:51:51;;;;;;;0.70;0.60;;;23.30;99.90;;;;;;5045612;28;20037;-72
2021/05/10 08:54:24;;;;;;;1.85;0.73;;;23.30;99.90;;;;;;5044227;28;20036;-73
2021/05/10 08:56:54;;;;;;;3.83;0.90;;;23.20;99.90;;;;;;5045600;28;20041;-72
2021/05/10 08:59:24;;;;;;;1.83;0.85;;;23.30;99.90;;;;;;5043943;28;20136;-75
2021/05/10 09:01:52;;;;;;;2.90;0.70;;;23.30;99.90;;;;;;5045297;28;20021;-79
2021/05/10 09:04:46;;;;;;;0.90;0.60;;;23.30;99.90;;;;;;5060820;28;20083;-74
2021/05/10 09:07:25;;;;;;;0.80;0.75;;;23.30;99.90;;;;;;5044881;28;20042;-74
2021/05/10 09:10:03;;;;;;;4.55;1.10;;;23.20;99.90;;;;;;5045446;28;20032;-73
2021/05/10 09:12:52;;;;;;;3.65;1.10;;;23.10;99.90;;;;;;5043398;28;20083;-74
2021/05/10 09:15:31;;;;;;;3.08;0.88;;;23.10;99.90;;;;;;5059618;28;20489;-74
2021/05/10 09:18:05;;;;;;;0.95;0.60;;;23.10;99.90;;;;;;5042412;28;20033;-74
2021/05/10 09:20:42;;;;;;;3.75;1.15;;;23.00;99.90;;;;;;5044942;28;20079;-70
2021/05/10 09:23:11;;;;;;;1.52;0.77;;;23.10;99.90;;;;;;5045162;28;20033;-73
2021/05/10 09:25:40;;;;;;;1.75;0.55;;;23.10;99.90;;;;;;5043622;28;20112;-71
2021/05/10 09:28:10;;;;;;;1.13;0.75;;;23.10;99.90;;;;;;5044501;28;20093;-74
2021/05/10 09:30:36;;;;;;;2.10;0.95;;;23.20;99.90;;;;;;5044569;28;20040;-74
2021/05/10 09:33:03;;;;;;;3.97;1.27;;;23.30;99.90;;;;;;5059547;28;20057;-72
2021/05/10 09:35:30;;;;;;;2.67;1.10;;;23.30;99.90;;;;;;5059989;28;20056;-72
2021/05/10 09:37:57;;;;;;;4.22;1.05;;;23.60;99.90;;;;;;5044913;28;20036;-71
2021/05/10 09:40:24;;;;;;;3.50;0.73;;;23.70;99.90;;;;;;5044754;28;20116;-72
2021/05/10 09:42:55;;;;;;;2.30;1.10;;;23.90;99.90;;;;;;5043201;28;20056;-77
2021/05/10 09:45:33;;;;;;;0.77;0.40;;;23.90;99.90;;;;;;5044738;28;20024;-75
2021/05/10 09:48:10;;;;;;;3.25;1.00;;;23.90;99.90;;;;;;5044223;28;20032;-73
2021/05/10 09:51:03;;;;;;;1.67;0.82;;;23.90;99.90;;;;;;5059838;28;20099;-73
2021/05/10 09:53:48;;;;;;;1.98;0.63;;;24.10;99.90;;;;;;5044225;28;20044;-73
2021/05/10 09:56:18;;;;;;;8.35;0.77;;;24.40;99.90;;;;;;5059620;28;20128;-78
2021/05/10 09:58:46;;;;;;;0.52;0.52;;;24.70;99.90;;;;;;5044881;28;20036;-74
2021/05/10 10:01:13;;;;;;;3.05;0.82;;;24.90;99.90;;;;;;5043134;28;20144;-71
2021/05/10 10:03:40;;;;;;;0.75;0.57;;;25.10;99.90;;;;;;5042725;28;20092;-70
2021/05/10 10:06:08;;;;;;;1.02;0.85;;;25.10;98.70;;;;;;5044453;28;20065;-76
2021/05/10 10:08:35;;;;;;;2.35;0.60;;;25.00;99.80;;;;;;5044246;28;20022;-75
2021/05/10 10:11:01;;;;;;;1.25;0.63;;;25.10;99.10;;;;;;5043890;28;20038;-73
2021/05/10 10:13:27;;;;;;;0.90;0.52;;;25.10;98.90;;;;;;5048164;28;20026;-72
2021/05/10 10:15:56;;;;;;;1.30;0.90;;;25.20;98.50;;;;;;5047881;28;20022;-73
2021/05/10 10:18:24;;;;;;;0.98;0.70;;;25.40;98.80;;;;;;5047736;28;20033;-75
2021/05/10 10:20:52;;;;;;;2.80;0.95;;;25.60;98.70;;;;;;5047024;28;20076;-70
2021/05/10 10:23:24;;;;;;;0.43;0.43;;;25.90;98.70;;;;;;5046727;28;20029;-76
2021/05/10 10:25:54;;;;;;;8.30;1.30;;;26.20;98.60;;;;;;5048216;28;20068;-73
2021/05/10 10:28:24;;;;;;;6.70;0.80;;;26.40;97.90;;;;;;5062839;28;20550;-73
2021/05/10 10:30:55;;;;;;;1.25;0.50;;;26.50;96.70;;;;;;5047216;28;20048;-71
2021/05/10 10:33:32;;;;;;;2.63;0.75;;;26.50;95.10;;;;;;5046267;28;20025;-75
2021/05/10 10:35:58;;;;;;;1.48;0.85;;;26.50;96.10;;;;;;5047334;28;20359;-74
2021/05/10 10:38:33;;;;;;;2.53;0.47;;;26.50;96.10;;;;;;5047504;28;20053;-76
2021/05/10 10:41:19;;;;;;;1.55;0.70;;;26.50;95.90;;;;;;5047753;28;20022;-73
2021/05/10 10:43:48;;;;;;;3.45;0.90;;;26.60;95.60;;;;;;5047954;28;20479;-76
2021/05/10 10:46:25;;;;;;;1.42;0.85;;;26.70;96.70;;;;;;5063208;28;20033;-72
2021/05/10 10:48:52;;;;;;;1.90;0.63;;;26.60;95.30;;;;;;5046666;28;20037;-72
2021/05/10 10:51:19;;;;;;;1.00;0.85;;;26.60;96.10;;;;;;5047322;28;20041;-74
2021/05/10 10:53:55;;;;;;;0.98;0.50;;;26.50;96.00;;;;;;5046842;28;20021;-79
2021/05/10 10:56:47;;;;;;;0.80;0.50;;;26.40;95.20;;;;;;5047679;28;20051;-73
2021/05/10 10:59:56;;;;;;;5.18;0.82;;;26.30;95.40;;;;;;5064577;28;20004;-71
2021/05/10 11:02:26;;;;;;;3.35;0.98;;;26.30;95.70;;;;;;5044535;28;20072;-70
2021/05/10 11:05:10;;;;;;;0.52;0.40;;;26.10;95.20;;;;;;5061815;28;20041;-74
2021/05/10 11:08:15;;;;;;;1.20;0.73;;;26.20;96.30;;;;;;5046356;28;20036;-75
2021/05/10 11:10:52;;;;;;;1.58;0.70;;;26.70;94.90;;;;;;5046930;28;20045;-73
2021/05/10 11:13:28;;;;;;;1.17;0.68;;;26.90;95.00;;;;;;5047953;28;20031;-73
2021/05/10 11:16:02;;;;;;;1.75;0.77;;;27.00;94.80;;;;;;5048211;28;20030;-78
2021/05/10 11:18:56;;;;;;;3.85;1.10;;;27.10;95.20;;;;;;5048800;28;20088;-80
2021/05/10 11:21:24;;;;;;;;;;;26.90;95.80;;;;;;5047604;28;20545;-71
2021/05/10 11:23:58;;;;;;;2.13;0.82;;;26.80;96.40;;;;;;5045755;28;19905;-77
2021/05/10 11:26:44;;;;;;;2.13;1.02;;;26.80;97.30;;;;;;5047452;28;20030;-74
2021/05/10 11:29:29;;;;;;;1.05;0.90;;;26.60;96.30;;;;;;5054398;28;20033;-70
2021/05/10 11:32:21;;;;;;;6.80;0.80;;;26.10;96.90;;;;;;5057423;28;20037;-70
2021/05/10 11:34:51;;;;;;;2.53;1.27;;;25.50;97.30;;;;;;5050612;28;20032;-72
2021/05/10 11:37:28;;;;;;;0.85;0.70;;;25.10;97.70;;;;;;5060852;28;20101;-73
2021/05/10 11:39:58;;;;;;;1.85;0.88;;;24.60;98.20;;;;;;5056647;28;20029;-73
2021/05/10 11:42:27;;;;;;;3.35;1.00;;;24.40;98.90;;;;;;5061643;28;20053;-73
2021/05/10 11:45:00;;;;;;;1.70;0.85;;;24.20;99.20;;;;;;5045473;28;20041;-75
2021/05/10 11:47:26;;;;;;;3.17;1.30;;;23.90;99.10;;;;;;5044795;28;20478;-74
2021/05/10 11:49:52;;;;;;;1.00;0.57;;;23.90;99.50;;;;;;5046578;28;20052;-76
2021/05/10 11:52:20;;;;;;;6.80;0.75;;;23.80;99.30;;;;;;5046779;28;20048;-77
2021/05/10 11:54:50;;;;;;;5.13;1.02;;;23.60;99.40;;;;;;5045238;28;20022;-71
2021/05/10 11:57:40;;;;;;;1.20;0.80;;;23.50;99.50;;;;;;5045078;28;20029;-75
2021/05/10 12:00:13;;;;;;;3.05;0.90;;;23.30;99.90;;;;;;5046290;28;20034;-74
2021/05/10 12:02:45;;;;;;;0.63;0.50;;;23.40;99.90;;;;;;5044896;28;20141;-76
2021/05/10 12:05:12;;;;;;;5.95;0.60;;;23.60;99.90;;;;;;5046683;28;20037;-72
2021/05/10 12:07:38;;;;;;;0.55;0.40;;;23.90;99.70;;;;;;5046013;28;20560;-71
2021/05/10 12:10:11;;;;;;;1.30;0.55;;;24.00;99.70;;;;;;5045103;28;20032;-70
2021/05/10 12:12:37;;;;;;;4.38;0.73;;;24.00;99.40;;;;;;5045549;28;20034;-72
2021/05/10 12:15:37;;;;;;;0.85;0.47;;;23.90;99.30;;;;;;5045840;28;20025;-78
2021/05/10 12:18:04;;;;;;;0.80;0.43;;;23.80;99.10;;;;;;5040947;28;20040;-77
2021/05/10 12:20:31;;;;;;;0.63;0.50;;;23.60;99.30;;;;;;5045906;28;20026;-73
2021/05/10 12:23:02;;;;;;;0.70;0.43;;;23.60;98.90;;;;;;5044903;28;20053;-75
2021/05/10 12:25:35;;;;;;;0.80;0.52;;;23.50;99.30;;;;;;5044845;28;20025;-73
2021/05/10 12:28:08;;;;;;;0.73;0.40;;;23.40;99.50;;;;;;5046147;28;20068;-75
2021/05/10 12:30:41;;;;;;;2.97;1.20;;;23.40;99.70;;;;;;5045973;28;20061;-74
2021/05/10 12:33:12;;;;;;;8.15;1.10;;;23.40;99.70;;;;;;5045482;28;20044;-71
2021/05/10 12:35:42;;;;;;;2.55;0.50;;;23.50;99.20;;;;;;5063044;28;20080;-75
2021/05/10 12:38:09;;;;;;;0.20;0.20;;;23.50;99.80;;;;;;5061012;28;20040;-75
2021/05/10 12:40:43;;;;;;;0.68;0.40;;;23.50;99.80;;;;;;5045804;28;20588;-75
2021/05/10 12:43:17;;;;;;;1.65;0.25;;;23.50;99.80;;;;;;5063707;28;20113;-72
2021/05/10 12:45:44;;;;;;;0.45;0.45;;;23.50;99.80;;;;;;5066132;28;20462;-77
2021/05/10 12:48:19;;;;;;;0.32;0.30;;;23.70;99.90;;;;;;5065867;28;20029;-75
2021/05/10 12:50:51;;;;;;;3.83;0.65;;;23.70;99.90;;;;;;5065516;28;20040;-75
2021/05/10 12:53:36;;;;;;;0.57;0.50;;;23.70;99.60;;;;;;5064519;28;20025;-73
2021/05/10 12:56:13;;;;;;;4.78;0.68;;;23.70;99.10;;;;;;5064484;28;20036;-74
2021/05/10 12:58:40;;;;;;;0.93;0.40;;;23.60;99.20;;;;;;5065752;28;20049;-77
2021/05/10 13:01:13;;;;;;;1.17;0.50;;;23.40;99.80;;;;;;5065723;28;20036;-77
2021/05/10 13:03:39;;;;;;;10.43;0.40;;;23.40;99.90;;;;;;5065302;28;20028;-75